createdAt,value
2022-09-25T00:00:51.414Z,4.13
2022-09-25T00:03:17.949Z,4.00
2022-09-25T00:05:45.996Z,3.37
2022-09-25T00:08:13.561Z,3.37
2022-09-25T00:10:51.147Z,3.00
2022-09-25T00:13:20.052Z,3.33
2022-09-25T00:15:56.018Z,2.77
2022-09-25T00:18:43.116Z,3.40
2022-09-25T00:21:12.454Z,3.53
2022-09-25T00:23:39.517Z,4.30
2022-09-25T00:26:08.025Z,4.33
2022-09-25T00:28:36.309Z,4.33
2022-09-25T00:31:05.330Z,4.07
2022-09-25T00:33:32.842Z,3.73
2022-09-25T00:36:07.707Z,3.97
2022-09-25T00:38:36.629Z,3.80
2022-09-25T00:41:05.541Z,3.50
2022-09-25T00:43:50.953Z,3.77
2022-09-25T00:46:38.141Z,3.87
2022-09-25T00:49:13.895Z,3.60
2022-09-25T00:51:45.760Z,3.97
2022-09-25T00:54:21.068Z,4.87
2022-09-25T00:56:48.563Z,4.20
2022-09-25T00:59:19.746Z,4.40
2022-09-25T01:01:46.716Z,4.60
2022-09-25T01:04:14.486Z,3.87
2022-09-25T01:06:41.060Z,3.73
2022-09-25T01:09:07.493Z,3.97
2022-09-25T01:11:34.366Z,3.80
2022-09-25T01:14:03.170Z,3.70
2022-09-25T01:16:29.538Z,3.10
2022-09-25T01:19:14.671Z,2.43
2022-09-25T01:21:48.726Z,3.17
2022-09-25T01:24:20.745Z,2.43
2022-09-25T01:27:16.960Z,2.47
2022-09-25T01:29:52.493Z,2.67
2022-09-25T01:32:27.645Z,2.63
2022-09-25T01:35:31.611Z,2.67
2022-09-25T01:38:02.551Z,2.30
2022-09-25T01:40:55.155Z,2.70
2022-09-25T01:43:44.101Z,2.80
2022-09-25T01:46:24.089Z,2.23
2022-09-25T01:48:57.811Z,2.30
2022-09-25T01:51:29.721Z,2.73
2022-09-25T01:53:58.107Z,2.30
2022-09-25T01:56:32.791Z,2.80
2022-09-25T01:59:07.035Z,2.10
2022-09-25T02:01:35.909Z,2.07
2022-09-25T02:04:10.328Z,2.37
2022-09-25T02:06:39.010Z,2.77
2022-09-25T02:09:17.489Z,2.63
2022-09-25T02:11:47.960Z,2.47
2022-09-25T02:14:29.707Z,2.30
2022-09-25T02:16:58.082Z,2.00
2022-09-25T02:19:44.502Z,2.63
2022-09-25T02:22:14.239Z,1.70
2022-09-25T02:24:47.977Z,2.13
2022-09-25T02:27:15.573Z,2.20
2022-09-25T02:29:42.606Z,2.53
2022-09-25T02:32:12.511Z,2.17
2022-09-25T02:34:39.653Z,2.30
2022-09-25T02:37:10.313Z,2.60
2022-09-25T02:39:36.690Z,2.50
2022-09-25T02:42:21.696Z,1.73
2022-09-25T02:45:09.854Z,1.90
2022-09-25T02:47:55.392Z,2.07
2022-09-25T02:50:33.744Z,2.03
2022-09-25T02:53:13.545Z,2.27
2022-09-25T02:55:39.775Z,1.70
2022-09-25T02:58:20.142Z,2.73
2022-09-25T03:00:50.512Z,1.67
2022-09-25T03:03:19.253Z,1.90
2022-09-25T03:05:46.880Z,2.37
2022-09-25T03:08:32.049Z,2.10
2022-09-25T03:10:59.096Z,2.13
2022-09-25T03:13:27.668Z,2.27
2022-09-25T03:16:00.752Z,2.57
2022-09-25T03:18:28.337Z,2.50
2022-09-25T03:20:54.815Z,2.13
2022-09-25T03:23:21.165Z,2.33
2022-09-25T03:25:50.260Z,2.13
2022-09-25T03:28:17.638Z,2.50
2022-09-25T03:30:44.386Z,2.70
2022-09-25T03:33:12.793Z,2.90
2022-09-25T03:35:39.846Z,3.23
2022-09-25T03:38:10.263Z,2.60
2022-09-25T03:40:36.677Z,2.00
2022-09-25T03:45:28.605Z,2.63
2022-09-25T03:47:55.017Z,2.50
2022-09-25T03:50:21.331Z,1.90
2022-09-25T03:52:47.783Z,2.30
2022-09-25T03:55:14.041Z,2.00
2022-09-25T03:57:41.483Z,2.40
2022-09-25T04:00:08.296Z,2.53
2022-09-25T04:02:40.409Z,2.80
2022-09-25T04:05:07.035Z,2.30
2022-09-25T04:07:33.742Z,2.53
2022-09-25T04:10:00.117Z,2.47
2022-09-25T04:12:26.464Z,2.17
2022-09-25T04:14:52.889Z,1.90
2022-09-25T04:17:19.260Z,1.97
2022-09-25T04:19:46.902Z,2.17
2022-09-25T04:22:13.352Z,1.90
2022-09-25T04:24:48.946Z,2.70
2022-09-25T04:27:21.612Z,2.17
2022-09-25T04:29:49.411Z,1.87
2022-09-25T04:32:35.419Z,2.07
2022-09-25T04:35:02.491Z,2.40
2022-09-25T04:37:28.843Z,2.60
2022-09-25T04:39:56.582Z,2.07
2022-09-25T04:42:24.643Z,2.10
2022-09-25T04:44:55.656Z,2.47
2022-09-25T04:47:23.053Z,2.33
2022-09-25T04:49:49.810Z,2.20
2022-09-25T04:52:17.616Z,2.27
2022-09-25T04:54:44.606Z,2.17
2022-09-25T04:57:27.395Z,2.00
2022-09-25T05:00:02.128Z,2.33
2022-09-25T05:02:28.813Z,2.00
2022-09-25T05:04:55.234Z,2.30
2022-09-25T05:07:21.554Z,2.33
2022-09-25T05:09:48.643Z,2.83
2022-09-25T05:12:15.688Z,2.77
2022-09-25T05:14:42.527Z,2.53
2022-09-25T05:17:11.159Z,2.63
2022-09-25T05:19:38.366Z,2.50
2022-09-25T05:22:05.072Z,2.70
2022-09-25T05:24:31.406Z,3.10
2022-09-25T05:26:57.800Z,3.20
2022-09-25T05:29:24.074Z,2.70
2022-09-25T05:31:50.382Z,3.43
2022-09-25T05:34:16.711Z,2.77
2022-09-25T05:36:43.140Z,3.07
2022-09-25T05:39:14.180Z,3.00
2022-09-25T05:41:41.000Z,3.17
2022-09-25T05:44:09.646Z,3.20
2022-09-25T05:46:36.747Z,3.30
2022-09-25T05:49:04.103Z,3.30
2022-09-25T05:51:31.707Z,3.07
2022-09-25T05:53:57.963Z,3.13
2022-09-25T05:56:24.695Z,3.60
2022-09-25T05:58:52.743Z,2.73
2022-09-25T06:01:19.684Z,3.90
2022-09-25T06:03:46.592Z,3.23
2022-09-25T06:06:12.957Z,3.30
2022-09-25T06:08:39.264Z,3.27
2022-09-25T06:11:06.124Z,3.70
2022-09-25T06:13:33.013Z,3.30
2022-09-25T06:15:59.415Z,3.80
2022-09-25T06:18:26.024Z,4.23
2022-09-25T06:20:59.882Z,3.77
2022-09-25T06:23:26.247Z,3.60
2022-09-25T06:25:52.584Z,4.17
2022-09-25T06:28:19.010Z,3.83
2022-09-25T06:30:45.391Z,3.67
2022-09-25T06:33:13.763Z,3.33
2022-09-25T06:35:45.147Z,3.43
2022-09-25T06:38:12.140Z,3.30
2022-09-25T06:40:41.478Z,3.70
2022-09-25T06:43:13.307Z,3.07
2022-09-25T06:45:39.657Z,3.40
2022-09-25T06:48:09.984Z,4.20
2022-09-25T06:50:41.928Z,3.27
2022-09-25T06:53:09.550Z,4.30
2022-09-25T06:55:35.994Z,3.93
2022-09-25T06:58:02.361Z,3.20
2022-09-25T07:00:28.764Z,3.37
2022-09-25T07:03:15.602Z,3.33
2022-09-25T07:05:44.579Z,3.37
2022-09-25T07:08:13.835Z,4.47
2022-09-25T07:10:45.071Z,3.03
2022-09-25T07:13:12.165Z,3.63
2022-09-25T07:15:38.915Z,3.13
2022-09-25T07:18:05.289Z,2.80
2022-09-25T07:20:32.260Z,2.93
2022-09-25T07:23:03.892Z,2.97
2022-09-25T07:25:34.018Z,3.27
2022-09-25T07:28:00.429Z,2.73
2022-09-25T07:30:29.950Z,2.20
2022-09-25T07:33:00.058Z,2.47
2022-09-25T07:35:27.160Z,2.60
2022-09-25T07:37:56.946Z,2.93
2022-09-25T07:40:26.244Z,2.93
2022-09-25T07:42:53.057Z,3.13
2022-09-25T07:45:19.446Z,2.60
2022-09-25T07:47:45.718Z,1.97
2022-09-25T07:50:15.533Z,2.37
2022-09-25T07:52:42.241Z,2.33
2022-09-25T07:55:09.232Z,1.97
2022-09-25T07:57:35.655Z,1.77
2022-09-25T08:00:02.085Z,1.83
2022-09-25T08:02:38.276Z,1.80
2022-09-25T08:05:05.152Z,1.67
2022-09-25T08:07:31.512Z,2.23
2022-09-25T08:09:57.914Z,1.50
2022-09-25T08:12:25.126Z,1.80
2022-09-25T08:14:52.533Z,1.80
2022-09-25T08:17:19.881Z,1.60
2022-09-25T08:19:46.163Z,1.90
2022-09-25T08:22:12.711Z,2.37
2022-09-25T08:24:39.089Z,1.63
2022-09-25T08:27:07.531Z,1.80
2022-09-25T08:29:34.429Z,1.93
2022-09-25T08:32:01.455Z,1.40
2022-09-25T08:34:40.737Z,1.73
2022-09-25T08:37:08.363Z,1.37
2022-09-25T08:39:34.842Z,1.73
2022-09-25T08:42:02.089Z,1.83
2022-09-25T08:44:38.495Z,1.50
2022-09-25T08:47:39.612Z,1.57
2022-09-25T08:50:09.942Z,1.70
2022-09-25T08:52:37.391Z,1.10
2022-09-25T08:55:04.049Z,1.47
2022-09-25T08:57:34.825Z,1.17
2022-09-25T09:00:06.496Z,1.57
2022-09-25T09:02:43.748Z,1.53
2022-09-25T09:05:37.095Z,1.43
2022-09-25T09:08:09.314Z,1.30
2022-09-25T09:10:41.717Z,1.47
2022-09-25T09:13:10.778Z,1.20
2022-09-25T09:15:46.688Z,1.17
2022-09-25T09:18:21.695Z,1.27
2022-09-25T09:21:06.976Z,1.20
2022-09-25T09:23:43.610Z,1.73
2022-09-25T09:26:19.172Z,1.10
2022-09-25T09:29:19.063Z,1.60
2022-09-25T09:31:49.890Z,1.57
2022-09-25T09:35:04.554Z,1.47
2022-09-25T09:37:31.448Z,1.30
2022-09-25T09:40:03.536Z,1.40
2022-09-25T09:42:39.364Z,0.93
2022-09-25T09:45:11.899Z,1.57
2022-09-25T09:47:46.620Z,0.97
2022-09-25T09:50:23.180Z,1.00
2022-09-25T09:53:01.169Z,0.80
2022-09-25T09:55:46.036Z,1.20
2022-09-25T09:58:23.598Z,1.30
2022-09-25T10:00:50.597Z,1.03
2022-09-25T10:03:34.447Z,1.60
2022-09-25T10:06:04.545Z,1.43
2022-09-25T10:08:31.099Z,1.20
2022-09-25T10:10:59.024Z,1.47
2022-09-25T10:13:32.639Z,1.13
2022-09-25T10:16:03.900Z,1.43
2022-09-25T10:18:40.759Z,1.13
2022-09-25T10:21:30.137Z,1.00
2022-09-25T10:23:58.470Z,1.00
2022-09-25T10:26:42.600Z,1.33
2022-09-25T10:29:20.924Z,1.20
2022-09-25T10:31:47.426Z,1.00
2022-09-25T10:34:13.852Z,1.20
2022-09-25T10:36:42.573Z,1.37
2022-09-25T10:39:44.248Z,1.00
2022-09-25T10:42:38.982Z,1.10
2022-09-25T10:45:23.973Z,1.30
2022-09-25T10:48:09.558Z,1.33
2022-09-25T10:50:38.529Z,1.30
2022-09-25T10:53:05.538Z,1.57
2022-09-25T10:55:37.639Z,1.00
2022-09-25T10:58:09.171Z,1.00
2022-09-25T11:00:43.899Z,1.07
2022-09-25T11:03:21.224Z,1.20
2022-09-25T11:05:54.953Z,1.10
2022-09-25T11:08:23.596Z,0.80
2022-09-25T11:10:53.425Z,1.07
2022-09-25T11:13:36.736Z,1.23
2022-09-25T11:16:09.250Z,1.07
2022-09-25T11:19:13.296Z,0.90
2022-09-25T11:22:09.062Z,1.00
2022-09-25T11:24:44.284Z,1.20
2022-09-25T11:27:27.154Z,1.03
2022-09-25T11:30:01.955Z,1.20
2022-09-25T11:32:37.138Z,1.03
2022-09-25T11:35:12.741Z,1.30
2022-09-25T11:38:02.559Z,1.30
2022-09-25T11:41:14.681Z,1.20
2022-09-25T11:43:57.117Z,1.10
2022-09-25T11:46:36.286Z,1.60
2022-09-25T11:49:24.409Z,1.57
2022-09-25T11:52:09.136Z,1.70
2022-09-25T11:54:53.891Z,1.57
2022-09-25T11:57:36.986Z,1.10
2022-09-25T12:00:21.512Z,1.77
2022-09-25T12:03:08.750Z,1.00
2022-09-25T12:06:19.928Z,1.00
2022-09-25T12:09:15.506Z,1.27
2022-09-25T12:12:07.286Z,1.17
2022-09-25T12:14:52.743Z,0.93
2022-09-25T12:17:24.665Z,1.40
2022-09-25T12:19:59.168Z,0.90
2022-09-25T12:22:26.112Z,1.13
2022-09-25T12:25:04.262Z,0.97
2022-09-25T12:27:56.604Z,1.23
2022-09-25T12:30:29.422Z,1.33
2022-09-25T12:33:04.185Z,1.27
2022-09-25T12:35:49.082Z,1.07
2022-09-25T12:38:22.668Z,1.20
2022-09-25T12:40:59.861Z,1.20
2022-09-25T12:43:41.098Z,1.20
2022-09-25T12:46:25.517Z,1.00
2022-09-25T12:49:02.411Z,1.13
2022-09-25T12:51:40.376Z,1.20
2022-09-25T12:54:14.097Z,1.10
2022-09-25T12:56:44.146Z,0.80
2022-09-25T12:59:21.508Z,1.13
2022-09-25T13:01:53.540Z,1.37
2022-09-25T13:04:19.942Z,1.10
2022-09-25T13:06:49.818Z,1.00
2022-09-25T13:09:35.910Z,1.17
2022-09-25T13:12:04.531Z,1.23
2022-09-25T13:14:35.551Z,0.87
2022-09-25T13:17:02.479Z,1.27
2022-09-25T13:19:34.150Z,1.10
2022-09-25T13:22:10.471Z,1.10
2022-09-25T13:24:39.185Z,0.93
2022-09-25T13:27:06.449Z,1.30
2022-09-25T13:29:38.702Z,1.10
2022-09-25T13:32:19.983Z,1.33
2022-09-25T13:34:46.835Z,0.90
2022-09-25T13:37:15.156Z,1.00
2022-09-25T13:40:04.973Z,0.93
2022-09-25T13:42:31.408Z,1.10
2022-09-25T13:45:26.985Z,1.00
2022-09-25T13:48:01.745Z,1.20
2022-09-25T13:50:32.457Z,0.87
2022-09-25T13:53:17.265Z,0.83
2022-09-25T13:55:55.515Z,0.80
2022-09-25T13:58:22.972Z,1.10
2022-09-25T14:00:56.240Z,1.17
2022-09-25T14:03:43.995Z,0.90
2022-09-25T14:06:17.423Z,0.90
2022-09-25T14:08:44.753Z,1.00
2022-09-25T14:11:16.514Z,0.87
2022-09-25T14:13:46.180Z,1.10
2022-09-25T14:16:28.733Z,1.17
2022-09-25T14:18:58.073Z,0.97
2022-09-25T14:21:28.794Z,1.03
2022-09-25T14:23:56.275Z,0.90
2022-09-25T14:26:27.811Z,1.00
2022-09-25T14:28:55.573Z,0.70
2022-09-25T14:31:43.560Z,1.07
2022-09-25T14:34:42.577Z,1.10
2022-09-25T14:37:45.384Z,1.20
2022-09-25T14:40:20.982Z,0.80
2022-09-25T14:42:48.143Z,1.07
2022-09-25T14:45:37.591Z,0.90
2022-09-25T14:48:05.214Z,1.30
2022-09-25T14:50:37.113Z,1.30
2022-09-25T14:53:10.380Z,1.00
2022-09-25T14:55:46.413Z,1.40
2022-09-25T14:58:18.990Z,0.90
2022-09-25T15:00:48.993Z,1.00
2022-09-25T15:03:19.427Z,1.17
2022-09-25T15:05:50.047Z,1.10
2022-09-25T15:08:38.639Z,0.97
2022-09-25T15:11:12.574Z,1.40
2022-09-25T15:13:39.237Z,1.10
2022-09-25T15:16:25.137Z,1.07
2022-09-25T15:18:55.778Z,1.13
2022-09-25T15:21:34.337Z,0.90
2022-09-25T15:24:05.718Z,1.00
2022-09-25T15:26:37.465Z,1.00
2022-09-25T15:29:04.094Z,1.20
2022-09-25T15:31:37.550Z,1.40
2022-09-25T15:34:11.103Z,0.90
2022-09-25T15:36:37.430Z,0.80
2022-09-25T15:39:12.100Z,0.90
2022-09-25T15:41:38.549Z,1.00
2022-09-25T15:44:19.920Z,0.87
2022-09-25T15:46:55.486Z,1.17
2022-09-25T15:49:27.923Z,1.03
2022-09-25T15:52:01.100Z,1.03
2022-09-25T15:54:39.156Z,1.20
2022-09-25T15:57:11.149Z,0.87
2022-09-25T16:00:03.471Z,1.57
2022-09-25T16:02:52.702Z,1.07
2022-09-25T16:05:21.503Z,0.80
2022-09-25T16:07:48.759Z,0.93
2022-09-25T16:10:17.922Z,1.13
2022-09-25T16:12:47.487Z,1.30
2022-09-25T16:15:30.004Z,1.10
2022-09-25T16:18:05.721Z,1.07
2022-09-25T16:20:41.476Z,1.47
2022-09-25T16:23:28.833Z,1.00
2022-09-25T16:25:56.107Z,1.00
2022-09-25T16:28:27.718Z,0.90
2022-09-25T16:31:02.895Z,1.00
2022-09-25T16:33:33.432Z,0.93
2022-09-25T16:36:16.077Z,1.17
2022-09-25T16:39:01.729Z,0.90
2022-09-25T16:41:28.136Z,1.67
2022-09-25T16:44:25.307Z,1.20
2022-09-25T16:46:52.104Z,1.27
2022-09-25T16:49:19.875Z,1.20
2022-09-25T16:51:48.390Z,1.80
2022-09-25T16:54:15.922Z,1.67
2022-09-25T16:56:43.005Z,0.90
2022-09-25T16:59:18.151Z,1.03
2022-09-25T17:01:46.346Z,1.00
2022-09-25T17:04:15.528Z,1.27
2022-09-25T17:06:45.721Z,1.10
2022-09-25T17:09:14.157Z,1.30
2022-09-25T17:11:44.167Z,1.17
2022-09-25T17:14:23.105Z,1.10
2022-09-25T17:16:51.165Z,1.13
2022-09-25T17:19:19.125Z,1.20
2022-09-25T17:21:51.213Z,1.03
2022-09-25T17:24:20.138Z,1.07
2022-09-25T17:26:46.729Z,1.30
2022-09-25T17:29:13.343Z,1.30
2022-09-25T17:31:40.324Z,1.27
2022-09-25T17:34:17.031Z,1.43
2022-09-25T17:36:43.799Z,1.60
2022-09-25T17:39:10.490Z,1.57
2022-09-25T17:41:37.357Z,1.70
2022-09-25T17:44:04.505Z,1.57
2022-09-25T17:46:33.736Z,1.70
2022-09-25T17:49:00.752Z,1.60
2022-09-25T17:51:29.530Z,1.50
2022-09-25T17:53:59.231Z,2.00
2022-09-25T17:56:29.343Z,1.50
2022-09-25T17:58:57.254Z,1.57
2022-09-25T18:01:26.985Z,1.80
2022-09-25T18:03:58.831Z,1.90
2022-09-25T18:06:26.305Z,1.83
2022-09-25T18:08:54.299Z,1.83
2022-09-25T18:11:20.942Z,1.70
2022-09-25T18:13:47.575Z,2.20
2022-09-25T18:16:19.613Z,2.10
2022-09-25T18:19:05.205Z,1.83
2022-09-25T18:21:50.828Z,1.83
2022-09-25T18:24:17.331Z,1.77
2022-09-25T18:26:44.895Z,2.00
2022-09-25T18:29:18.168Z,2.63
2022-09-25T18:31:45.604Z,3.20
2022-09-25T18:34:12.144Z,2.77
2022-09-25T18:36:38.458Z,2.60
2022-09-25T18:39:05.103Z,2.67
2022-09-25T18:41:31.556Z,2.70
2022-09-25T18:43:58.049Z,2.80
2022-09-25T18:46:24.491Z,2.87
2022-09-25T18:48:53.384Z,2.50
2022-09-25T18:51:19.736Z,2.80
2022-09-25T18:53:51.452Z,2.90
2022-09-25T18:56:18.523Z,3.43
2022-09-25T18:58:44.918Z,2.63
2022-09-25T19:01:11.399Z,3.23
2022-09-25T19:03:40.935Z,3.30
2022-09-25T19:06:07.681Z,3.40
2022-09-25T19:08:34.037Z,3.23
2022-09-25T19:11:00.425Z,4.00
2022-09-25T19:13:28.131Z,3.60
2022-09-25T19:15:55.729Z,3.57
2022-09-25T19:18:22.762Z,4.53
2022-09-25T19:20:54.472Z,3.60
2022-09-25T19:23:22.119Z,3.40
2022-09-25T19:25:56.341Z,3.30
2022-09-25T19:28:25.631Z,2.80
2022-09-25T19:30:59.199Z,3.50
2022-09-25T19:33:25.971Z,3.90
2022-09-25T19:35:58.842Z,3.50
2022-09-25T19:38:25.747Z,2.73
2022-09-25T19:40:52.174Z,2.43
2022-09-25T19:43:18.901Z,2.50
2022-09-25T19:45:48.546Z,2.60
2022-09-25T19:48:14.937Z,2.37
2022-09-25T19:50:42.072Z,2.60
2022-09-25T19:53:08.427Z,2.80
2022-09-25T19:55:37.180Z,2.93
2022-09-25T19:58:04.200Z,3.20
2022-09-25T20:00:31.180Z,3.07
2022-09-25T20:02:57.524Z,2.57
2022-09-25T20:05:24.284Z,2.23
2022-09-25T20:07:51.067Z,2.57
2022-09-25T20:10:17.979Z,2.97
2022-09-25T20:12:44.327Z,2.83
2022-09-25T20:15:10.796Z,2.87
2022-09-25T20:17:37.138Z,2.57
2022-09-25T20:20:03.792Z,2.53
2022-09-25T20:22:31.392Z,3.20
2022-09-25T20:24:57.731Z,3.00
2022-09-25T20:27:25.744Z,2.77
2022-09-25T20:29:52.369Z,3.47
2022-09-25T20:32:18.729Z,3.30
2022-09-25T20:34:45.185Z,2.83
2022-09-25T20:37:11.574Z,3.57
2022-09-25T20:39:37.857Z,3.57
2022-09-25T20:42:04.229Z,4.10
2022-09-25T20:44:30.595Z,4.10
2022-09-25T20:46:56.996Z,4.03
2022-09-25T20:49:23.505Z,3.20
2022-09-25T20:51:49.792Z,3.07
2022-09-25T20:54:16.253Z,3.83
2022-09-25T20:56:45.670Z,3.83
2022-09-25T20:59:12.437Z,3.90
2022-09-25T21:01:40.740Z,4.00
2022-09-25T21:04:08.480Z,3.60
2022-09-25T21:06:35.702Z,3.53
2022-09-25T21:09:06.244Z,4.10
2022-09-25T21:11:33.124Z,3.47
2022-09-25T21:14:02.491Z,3.93
2022-09-25T21:16:29.537Z,4.23
2022-09-25T21:18:58.856Z,4.00
2022-09-25T21:21:26.619Z,4.00
2022-09-25T21:23:54.506Z,4.30
2022-09-25T21:26:24.007Z,3.70
2022-09-25T21:28:52.683Z,3.60
2022-09-25T21:31:22.038Z,4.53
2022-09-25T21:33:54.282Z,4.07
2022-09-25T21:36:21.564Z,4.60
2022-09-25T21:38:49.267Z,3.60
2022-09-25T21:41:17.837Z,4.13
2022-09-25T21:43:45.220Z,4.80
2022-09-25T21:46:15.549Z,5.30
2022-09-25T21:48:48.102Z,4.00
2022-09-25T21:51:16.054Z,3.83
2022-09-25T21:53:42.473Z,4.07
2022-09-25T21:56:15.021Z,4.33
2022-09-25T21:58:41.550Z,3.67
2022-09-25T22:01:11.960Z,4.03
2022-09-25T22:03:39.705Z,4.30
2022-09-25T22:06:08.925Z,4.30
2022-09-25T22:08:37.115Z,4.60
2022-09-25T22:11:04.159Z,5.13
2022-09-25T22:13:32.713Z,5.10
2022-09-25T22:16:02.975Z,5.40
2022-09-25T22:18:29.591Z,5.10
2022-09-25T22:20:56.075Z,4.53
2022-09-25T22:23:23.772Z,5.33
2022-09-25T22:25:51.230Z,4.83
2022-09-25T22:28:21.299Z,5.17
2022-09-25T22:30:47.826Z,5.00
2022-09-25T22:33:14.146Z,5.00
2022-09-25T22:35:40.525Z,4.70
2022-09-25T22:38:06.793Z,5.03
2022-09-25T22:40:39.047Z,4.70
2022-09-25T22:43:06.730Z,5.33
2022-09-25T22:45:33.735Z,5.00
2022-09-25T22:48:01.070Z,5.03
2022-09-25T22:50:27.742Z,5.13
2022-09-25T22:52:58.510Z,4.83
2022-09-25T22:55:26.001Z,4.63
2022-09-25T22:57:52.325Z,4.80
2022-09-25T23:00:18.728Z,4.93
2022-09-25T23:02:45.180Z,4.67
2022-09-25T23:05:12.588Z,5.20
2022-09-25T23:07:38.995Z,4.83
2022-09-25T23:10:06.255Z,5.07
2022-09-25T23:12:32.577Z,5.10
2022-09-25T23:14:58.863Z,5.10
2022-09-25T23:17:26.344Z,5.57
2022-09-25T23:19:52.708Z,5.60
2022-09-25T23:22:19.787Z,4.93
2022-09-25T23:24:46.131Z,5.70
2022-09-25T23:27:12.482Z,4.87
2022-09-25T23:29:38.810Z,4.87
2022-09-25T23:32:07.943Z,4.83
2022-09-25T23:34:34.286Z,4.47
2022-09-25T23:37:00.618Z,4.47
2022-09-25T23:39:27.114Z,5.33
2022-09-25T23:41:53.460Z,4.17
2022-09-25T23:44:19.804Z,4.73
2022-09-25T23:46:46.203Z,4.53
2022-09-25T23:49:12.710Z,4.70
2022-09-25T23:51:39.236Z,4.63
2022-09-25T23:54:05.796Z,4.70
2022-09-25T23:56:34.302Z,4.73
2022-09-25T23:59:03.655Z,5.83
